Time;durP1;ratioP1;P1;durP2;ratioP2;P2;SDS_P1;SDS_P2;PMS_P1;PMS_P2;Temp;Humidity;BMP_temperature;BMP_pressure;BME280_temperature;BME280_humidity;BME280_pressure;Samples;Min_cycle;Max_cycle;Signal;HPM_P1;HPM_P2
2023/05/30 00:01:19;;;;;;;9.20;1.52;;;;;;;10.73;100.00;102272.28;6158139;23;20432;-79
2023/05/30 00:03:45;;;;;;;10.80;1.70;;;;;;;10.71;100.00;102274.22;6159373;23;20017;-79
2023/05/30 00:06:12;;;;;;;20.65;2.17;;;;;;;10.61;100.00;102264.78;6135063;23;20010;-79
2023/05/30 00:08:39;;;;;;;11.45;1.35;;;;;;;10.64;100.00;102270.97;6161532;23;20009;-79
2023/05/30 00:11:04;;;;;;;13.50;1.50;;;;;;;10.64;100.00;102281.91;6159604;23;20341;-78
2023/05/30 00:13:29;;;;;;;15.07;1.90;;;;;;;10.60;100.00;102294.00;6134579;23;20010;-78
2023/05/30 00:15:57;;;;;;;13.38;2.58;;;;;;;10.57;100.00;102276.88;6159305;23;20083;-79
2023/05/30 00:18:23;;;;;;;13.05;1.42;;;;;;;10.46;100.00;102275.63;6166850;23;20018;-80
2023/05/30 00:20:50;;;;;;;13.43;1.70;;;;;;;10.47;100.00;102281.97;6122280;23;20013;-79
2023/05/30 00:23:15;;;;;;;7.93;1.40;;;;;;;10.48;100.00;102286.50;6161843;23;20040;-79
2023/05/30 00:25:41;;;;;;;17.10;1.90;;;;;;;10.39;100.00;102282.38;6134863;23;20013;-79
2023/05/30 00:28:07;;;;;;;13.60;2.35;;;;;;;10.36;100.00;102288.03;6133985;23;20009;-79
2023/05/30 00:30:33;;;;;;;14.55;1.63;;;;;;;10.37;100.00;102288.94;6109312;23;20024;-80
2023/05/30 00:32:59;;;;;;;10.02;1.85;;;;;;;10.33;100.00;102270.91;6159782;23;20084;-79
2023/05/30 00:35:25;;;;;;;11.48;1.90;;;;;;;10.32;100.00;102289.19;6134660;23;20020;-80
2023/05/30 00:37:50;;;;;;;13.10;1.88;;;;;;;10.34;100.00;102287.25;6160037;23;20072;-80
2023/05/30 00:40:16;;;;;;;7.55;1.35;;;;;;;10.25;100.00;102283.13;6158953;23;20054;-79
2023/05/30 00:42:42;;;;;;;14.02;1.75;;;;;;;10.29;100.00;102289.31;6159519;23;20096;-80
2023/05/30 00:45:10;;;;;;;11.05;1.83;;;;;;;10.29;100.00;102297.53;6111389;23;20283;-80
2023/05/30 00:47:36;;;;;;;12.73;2.38;;;;;;;10.28;100.00;102290.28;6109947;23;20020;-80
2023/05/30 00:50:02;;;;;;;10.85;1.70;;;;;;;10.05;100.00;102278.75;6160488;23;20009;-80
2023/05/30 00:52:28;;;;;;;10.55;1.80;;;;;;;10.09;100.00;102295.88;6158810;23;20013;-80
2023/05/30 00:54:55;;;;;;;13.52;2.30;;;;;;;10.07;100.00;102290.50;6133996;23;20005;-80
2023/05/30 00:57:20;;;;;;;10.80;1.95;;;;;;;10.12;100.00;102290.25;6161188;23;20009;-80
2023/05/30 00:59:47;;;;;;;10.57;1.42;;;;;;;9.90;100.00;102272.25;6134586;23;20017;-80
2023/05/30 01:02:13;;;;;;;14.50;2.10;;;;;;;10.02;100.00;102306.28;6159676;23;20407;-80
2023/05/30 01:04:40;;;;;;;11.13;1.70;;;;;;;10.08;100.00;102310.53;6159198;23;20074;-80
2023/05/30 01:07:10;;;;;;;9.13;2.00;;;;;;;9.93;100.00;102306.75;6158220;23;20014;-80
2023/05/30 01:09:36;;;;;;;15.13;2.75;;;;;;;9.94;100.00;102316.75;6134701;23;20024;-79
2023/05/30 01:12:18;;;;;;;12.98;2.17;;;;;;;9.99;100.00;102313.78;6110236;23;20033;-80
2023/05/30 01:15:00;;;;;;;12.15;1.90;;;;;;;9.94;100.00;102316.75;6159899;23;20009;-80
2023/05/30 01:17:47;;;;;;;13.77;2.00;;;;;;;9.89;100.00;102310.63;6158936;23;20005;-80
2023/05/30 01:20:18;;;;;;;23.35;2.15;;;;;;;9.82;100.00;102309.16;6157842;23;20005;-80
2023/05/30 01:22:49;;;;;;;12.73;1.90;;;;;;;9.85;100.00;102311.75;6158444;23;20013;-80
2023/05/30 01:25:37;;;;;;;11.20;2.28;;;;;;;9.90;100.00;102312.38;6158757;23;20444;-80
2023/05/30 01:28:15;;;;;;;11.82;2.13;;;;;;;9.83;100.00;102310.94;6158443;23;20016;-79
2023/05/30 01:30:45;;;;;;;13.38;2.00;;;;;;;9.81;100.00;102307.41;6132746;23;20009;-80
2023/05/30 01:33:12;;;;;;;12.45;1.98;;;;;;;9.76;100.00;102304.91;6132452;23;20063;-79
2023/05/30 01:35:40;;;;;;;12.95;1.55;;;;;;;9.74;100.00;102304.13;6107641;23;20013;-80
2023/05/30 01:38:06;;;;;;;11.90;2.10;;;;;;;9.72;100.00;102304.19;6133340;23;20018;-79
2023/05/30 01:40:33;;;;;;;15.43;2.20;;;;;;;9.65;100.00;102297.25;6158046;23;20079;-80
2023/05/30 01:43:09;;;;;;;20.52;2.70;;;;;;;9.63;100.00;102298.31;6132567;23;20021;-79
2023/05/30 01:45:47;;;;;;;17.70;2.97;;;;;;;9.71;100.00;102307.88;6156946;23;20009;-79
2023/05/30 01:48:29;;;;;;;12.10;2.28;;;;;;;9.66;100.00;102304.50;6157854;23;20044;-79
2023/05/30 01:50:55;;;;;;;15.52;2.50;;;;;;;9.63;100.00;102306.53;6182674;23;20009;-79
2023/05/30 01:53:33;;;;;;;18.15;2.35;;;;;;;9.56;100.00;102315.03;6133931;23;20014;-79
2023/05/30 01:56:00;;;;;;;10.10;1.88;;;;;;;9.49;100.00;102316.28;6157235;23;20016;-79
2023/05/30 01:58:26;;;;;;;17.35;2.10;;;;;;;9.38;100.00;102321.47;6158161;23;20025;-79
2023/05/30 02:00:53;;;;;;;9.93;2.70;;;;;;;9.31;100.00;102319.97;6109824;23;20010;-80
2023/05/30 02:03:22;;;;;;;17.60;2.55;;;;;;;9.40;100.00;102318.66;6160219;23;20013;-79
2023/05/30 02:05:47;;;;;;;20.58;2.20;;;;;;;9.23;100.00;102298.50;6132818;23;20005;-81
2023/05/30 02:08:13;;;;;;;18.83;2.28;;;;;;;9.30;100.00;102316.38;6160352;23;20016;-80
2023/05/30 02:10:38;;;;;;;19.90;2.40;;;;;;;9.48;100.00;102321.88;6159744;23;20020;-80
2023/05/30 02:13:04;;;;;;;17.23;2.90;;;;;;;9.31;100.00;102306.31;6110208;23;20006;-82
2023/05/30 02:15:29;;;;;;;19.60;3.78;;;;;;;9.37;100.00;102320.53;6161007;23;20010;-82
2023/05/30 02:17:55;;;;;;;9.70;2.03;;;;;;;9.34;100.00;102333.50;6161421;23;20006;-82
2023/05/30 02:20:20;;;;;;;16.10;2.70;;;;;;;9.41;100.00;102329.47;6161401;23;20018;-81
2023/05/30 02:22:46;;;;;;;15.85;2.30;;;;;;;9.30;100.00;102324.56;6112801;23;20016;-82
2023/05/30 02:25:11;;;;;;;12.10;2.05;;;;;;;9.18;100.00;102309.66;6162402;23;20341;-82
2023/05/30 02:27:37;;;;;;;19.10;2.30;;;;;;;9.28;100.00;102337.44;6137570;23;20442;-82
2023/05/30 02:30:02;;;;;;;16.67;2.10;;;;;;;9.27;100.00;102334.78;6138016;23;20067;-82
2023/05/30 02:32:28;;;;;;;10.95;2.40;;;;;;;9.23;100.00;102327.66;6162550;23;20017;-82
2023/05/30 02:34:53;;;;;;;13.55;2.17;;;;;;;9.26;100.00;102332.97;6137258;23;20056;-82
2023/05/30 02:37:19;;;;;;;9.80;2.38;;;;;;;9.26;100.00;102327.53;6112861;23;20084;-80
2023/05/30 02:39:45;;;;;;;16.13;1.67;;;;;;;9.15;100.00;102323.47;6161233;23;20068;-80
2023/05/30 02:42:10;;;;;;;15.35;2.80;;;;;;;9.17;100.00;102323.41;6112303;23;20016;-80
2023/05/30 02:44:36;;;;;;;8.60;2.38;;;;;;;9.17;100.00;102324.28;6160525;23;20089;-80
2023/05/30 02:47:01;;;;;;;16.80;2.75;;;;;;;9.02;100.00;102312.25;6135768;23;20016;-80
2023/05/30 02:49:27;;;;;;;17.10;2.60;;;;;;;9.20;100.00;102329.59;6111121;23;20014;-81
2023/05/30 02:51:52;;;;;;;17.40;2.60;;;;;;;9.11;100.00;102334.63;6161628;23;20393;-80
2023/05/30 02:54:18;;;;;;;12.43;2.83;;;;;;;9.06;100.00;102331.25;6136913;23;20044;-80
2023/05/30 02:56:43;;;;;;;21.30;2.35;;;;;;;9.08;100.00;102340.25;6164296;23;20072;-81
2023/05/30 02:59:09;;;;;;;23.67;2.88;;;;;;;8.97;100.00;102322.53;6138290;23;20048;-81
2023/05/30 03:01:34;;;;;;;9.13;2.08;;;;;;;9.02;100.00;102338.72;6163465;23;20106;-81
2023/05/30 03:04:00;;;;;;;20.17;2.55;;;;;;;9.02;100.00;102345.06;6122153;23;20033;-80
2023/05/30 03:06:26;;;;;;;19.45;2.67;;;;;;;8.98;100.00;102340.69;6174152;23;20010;-81
2023/05/30 03:08:59;;;;;;;16.13;2.92;;;;;;;8.91;100.00;102332.88;6148397;23;20010;-81
2023/05/30 03:11:25;;;;;;;15.13;2.33;;;;;;;8.94;100.00;102333.63;6173514;23;20016;-81
2023/05/30 03:13:51;;;;;;;17.80;2.35;;;;;;;8.85;100.00;102323.13;6175634;23;20607;-80
2023/05/30 03:16:17;;;;;;;13.75;2.63;;;;;;;8.87;100.00;102321.22;6175709;23;20061;-80
2023/05/30 03:18:42;;;;;;;22.00;3.45;;;;;;;8.86;100.00;102324.03;6152173;23;20012;-80
2023/05/30 03:21:11;;;;;;;19.23;2.70;;;;;;;8.85;100.00;102331.31;6153008;23;20009;-80
2023/05/30 03:23:37;;;;;;;17.00;2.58;;;;;;;8.83;100.00;102342.31;6153525;23;20319;-80
2023/05/30 03:26:03;;;;;;;14.95;2.47;;;;;;;8.86;100.00;102341.28;6166626;23;20011;-80
2023/05/30 03:28:29;;;;;;;12.63;2.58;;;;;;;8.94;100.00;102338.19;6162747;23;20014;-79
2023/05/30 03:30:56;;;;;;;13.95;2.42;;;;;;;8.95;100.00;102354.50;6163894;23;20013;-80
2023/05/30 03:33:22;;;;;;;18.20;3.13;;;;;;;8.91;100.00;102352.00;6114762;23;20021;-81
2023/05/30 03:35:48;;;;;;;13.77;2.38;;;;;;;8.90;100.00;102353.81;6161635;23;20013;-80
2023/05/30 03:38:14;;;;;;;17.00;3.08;;;;;;;8.94;100.00;102352.72;6163727;23;20345;-80
2023/05/30 03:40:39;;;;;;;24.75;3.17;;;;;;;8.96;100.00;102358.13;6161294;23;20044;-80
2023/05/30 03:43:05;;;;;;;19.60;2.80;;;;;;;8.97;100.00;102362.63;6161098;23;20013;-80
2023/05/30 03:45:30;;;;;;;23.23;3.28;;;;;;;9.04;100.00;102361.38;6160860;23;20307;-80
2023/05/30 03:47:56;;;;;;;11.73;2.75;;;;;;;9.01;100.00;102345.13;6111528;23;20017;-80
2023/05/30 03:50:21;;;;;;;12.98;2.63;;;;;;;9.09;100.00;102358.44;6159917;23;20053;-82
2023/05/30 03:52:47;;;;;;;13.18;2.60;;;;;;;8.94;100.00;102328.16;6134395;23;20017;-82
2023/05/30 03:55:12;;;;;;;21.63;3.70;;;;;;;9.10;100.00;102365.63;6132188;23;20032;-82
2023/05/30 03:57:38;;;;;;;19.67;2.97;;;;;;;9.07;100.00;102357.59;6157917;23;20075;-82
2023/05/30 04:00:04;;;;;;;21.52;3.30;;;;;;;9.19;100.00;102368.81;6132055;23;20017;-81
2023/05/30 04:02:29;;;;;;;12.07;2.97;;;;;;;9.14;100.00;102367.28;6132811;23;20445;-83
2023/05/30 04:04:55;;;;;;;18.70;3.67;;;;;;;9.30;100.00;102368.28;6133757;23;20017;-84
2023/05/30 04:07:21;;;;;;;21.27;3.53;;;;;;;9.34;100.00;102369.03;6135904;23;20017;-84
2023/05/30 04:09:47;;;;;;;8.10;2.55;;;;;;;9.32;100.00;102363.63;6161768;23;20020;-85
2023/05/30 04:12:12;;;;;;;21.30;3.38;;;;;;;9.49;100.00;102370.97;6136084;23;20014;-85
2023/05/30 04:14:38;;;;;;;13.25;2.70;;;;;;;9.47;100.00;102369.31;6111217;23;20012;-85
2023/05/30 04:17:04;;;;;;;13.25;2.55;;;;;;;9.50;100.00;102367.28;6137647;23;20068;-85
2023/05/30 04:19:29;;;;;;;12.80;2.90;;;;;;;9.61;100.00;102363.13;6135073;23;20001;-82
2023/05/30 04:21:55;;;;;;;24.27;2.80;;;;;;;9.60;100.00;102361.38;6084822;23;20337;-84
2023/05/30 04:24:21;;;;;;;13.93;2.88;;;;;;;9.72;100.00;102347.97;6158575;23;20429;-82
2023/05/30 04:26:48;;;;;;;16.75;3.20;;;;;;;9.77;100.00;102355.91;6110629;23;20442;-84
2023/05/30 04:29:14;;;;;;;17.48;3.30;;;;;;;9.77;100.00;102349.56;6136932;23;20024;-83
2023/05/30 04:31:40;;;;;;;12.63;2.47;;;;;;;9.85;100.00;102359.13;6135063;23;20782;-82
2023/05/30 04:34:06;;;;;;;17.33;3.15;;;;;;;9.89;100.00;102373.56;6086694;23;20021;-81
2023/05/30 04:36:36;;;;;;;14.82;3.38;;;;;;;9.83;100.00;102354.72;6133425;23;20496;-81
2023/05/30 04:39:02;;;;;;;14.55;3.17;;;;;;;9.95;100.00;102367.75;6109338;23;20434;-83
2023/05/30 04:41:27;;;;;;;9.15;2.53;;;;;;;9.94;100.00;102369.59;6113834;23;20010;-82
2023/05/30 04:43:57;;;;;;;17.13;3.75;;;;;;;9.94;100.00;102357.78;6155524;23;20014;-83
2023/05/30 04:46:24;;;;;;;12.30;3.10;;;;;;;10.05;100.00;102366.31;6133068;23;20465;-82
2023/05/30 04:48:55;;;;;;;11.48;3.03;;;;;;;10.03;100.00;102365.50;6157294;23;20333;-81
2023/05/30 04:51:23;;;;;;;9.32;2.63;;;;;;;10.17;100.00;102364.78;6134360;23;20456;-83
2023/05/30 04:53:50;;;;;;;22.50;3.90;;;;;;;10.18;100.00;102365.66;6159298;23;20044;-84
2023/05/30 04:56:16;;;;;;;14.93;2.90;;;;;;;10.19;100.00;102370.16;6136618;23;20005;-84
2023/05/30 04:58:45;;;;;;;16.33;2.83;;;;;;;10.15;100.00;102371.28;6164021;23;20317;-84
2023/05/30 05:01:11;;;;;;;17.88;3.65;;;;;;;10.10;100.00;102353.28;6136644;23;20039;-84
2023/05/30 05:03:40;;;;;;;14.20;3.22;;;;;;;10.30;100.00;102352.19;6162703;23;20020;-84
2023/05/30 05:06:07;;;;;;;21.70;3.10;;;;;;;10.41;100.00;102370.84;6139300;23;20010;-84
2023/05/30 05:08:34;;;;;;;10.60;2.72;;;;;;;10.26;100.00;102349.69;6161491;23;20323;-84
2023/05/30 05:11:04;;;;;;;17.83;3.25;;;;;;;10.43;100.00;102368.00;6164405;23;20009;-84
2023/05/30 05:13:30;;;;;;;13.52;3.03;;;;;;;10.44;100.00;102367.91;6163980;23;20033;-84
2023/05/30 05:15:56;;;;;;;13.05;2.90;;;;;;;10.53;100.00;102354.72;6138336;23;20021;-84
2023/05/30 05:18:21;;;;;;;8.95;2.80;;;;;;;10.57;100.00;102351.69;6142582;23;20010;-84
2023/05/30 05:20:48;;;;;;;11.63;3.15;;;;;;;10.69;100.00;102372.06;6142552;23;20463;-84
2023/05/30 05:23:13;;;;;;;12.77;3.33;;;;;;;10.56;100.00;102344.47;6119423;23;20041;-85
2023/05/30 05:25:39;;;;;;;16.63;2.80;;;;;;;10.55;100.00;102350.03;6168790;23;20017;-84
2023/05/30 05:28:05;;;;;;;15.13;3.30;;;;;;;10.81;100.00;102365.88;6142338;23;19994;-84
2023/05/30 05:30:30;;;;;;;12.88;3.17;;;;;;;10.65;100.00;102348.53;6167516;23;20481;-84
2023/05/30 05:32:56;;;;;;;9.30;3.53;;;;;;;10.75;100.00;102355.25;6092792;23;20017;-84
2023/05/30 05:35:22;;;;;;;10.00;2.83;;;;;;;10.97;100.00;102385.09;6163870;23;20018;-84
2023/05/30 05:37:47;;;;;;;10.52;3.47;;;;;;;10.71;100.00;102364.63;6164407;23;20010;-84
2023/05/30 05:40:13;;;;;;;17.70;3.50;;;;;;;10.70;100.00;102379.28;6165440;23;20006;-84
2023/05/30 05:42:39;;;;;;;15.30;3.65;;;;;;;10.74;100.00;102375.44;6161355;23;20013;-84
2023/05/30 05:45:05;;;;;;;15.73;3.70;;;;;;;10.83;100.00;102365.81;6160375;23;20009;-84
2023/05/30 05:47:31;;;;;;;8.23;3.10;;;;;;;10.78;100.00;102374.28;6135753;23;20094;-84
2023/05/30 05:49:57;;;;;;;9.35;3.40;;;;;;;10.78;100.00;102352.34;6112652;23;20013;-84
2023/05/30 05:52:22;;;;;;;15.13;2.83;;;;;;;10.82;100.00;102340.28;6112673;23;20013;-84
2023/05/30 05:54:51;;;;;;;17.33;4.88;;;;;;;11.07;100.00;102382.72;6165219;23;20052;-84
2023/05/30 05:57:16;;;;;;;14.30;3.17;;;;;;;11.23;100.00;102371.75;6110204;23;20014;-85
2023/05/30 05:59:44;;;;;;;14.45;3.13;;;;;;;11.22;100.00;102372.75;6157971;23;20010;-85
2023/05/30 06:02:10;;;;;;;13.38;2.85;;;;;;;11.46;100.00;102367.69;6133541;23;20014;-85
2023/05/30 06:04:36;;;;;;;9.05;3.35;;;;;;;11.89;100.00;102372.50;6109738;23;20101;-85
2023/05/30 06:07:02;;;;;;;10.75;2.85;;;;;;;12.20;100.00;102390.75;6116047;23;20421;-85
2023/05/30 06:09:31;;;;;;;9.68;2.38;;;;;;;12.18;100.00;102386.31;6170924;23;20028;-85
2023/05/30 06:12:02;;;;;;;19.80;4.13;;;;;;;11.95;100.00;102380.38;6142132;23;20014;-85
2023/05/30 06:14:28;;;;;;;9.50;3.13;;;;;;;11.62;100.00;102391.47;6138758;23;20009;-85
2023/05/30 06:16:53;;;;;;;8.77;2.65;;;;;;;11.64;100.00;102384.03;6165357;23;20014;-84
2023/05/30 06:19:19;;;;;;;9.88;3.50;;;;;;;11.57;100.00;102387.13;6163071;23;20036;-85
2023/05/30 06:21:45;;;;;;;7.85;3.05;;;;;;;11.61;100.00;102373.22;6158683;23;20010;-79
2023/05/30 06:24:10;;;;;;;11.50;2.65;;;;;;;11.65;100.00;102359.25;6155114;23;20017;-78
2023/05/30 06:26:36;;;;;;;14.07;3.53;;;;;;;11.84;100.00;102393.81;6131144;23;20017;-81
2023/05/30 06:29:01;;;;;;;10.32;3.25;;;;;;;11.80;100.00;102397.72;6156768;23;20017;-82
2023/05/30 06:31:27;;;;;;;9.57;2.90;;;;;;;11.87;100.00;102391.78;6155339;23;20108;-80
2023/05/30 06:33:52;;;;;;;12.45;3.78;;;;;;;11.80;100.00;102392.25;6131880;23;20010;-82
2023/05/30 06:36:18;;;;;;;10.57;3.30;;;;;;;11.73;100.00;102397.22;6137173;23;20009;-82
2023/05/30 06:38:43;;;;;;;13.70;3.85;;;;;;;11.87;100.00;102397.28;6163491;23;20024;-82
2023/05/30 06:41:09;;;;;;;8.80;3.17;;;;;;;11.97;100.00;102381.19;6162300;23;20091;-82
2023/05/30 06:43:34;;;;;;;9.07;3.30;;;;;;;12.10;100.00;102381.28;6164357;23;20017;-84
2023/05/30 06:46:00;;;;;;;9.95;3.25;;;;;;;12.35;100.00;102391.66;6189544;23;20336;-83
2023/05/30 06:48:25;;;;;;;12.80;3.63;;;;;;;12.36;100.00;102403.53;6188789;23;20101;-83
2023/05/30 06:50:51;;;;;;;14.02;4.68;;;;;;;12.19;100.00;102391.72;6163641;23;20009;-81
2023/05/30 06:53:16;;;;;;;18.52;3.22;;;;;;;12.40;100.00;102397.75;6164717;23;20020;-82
2023/05/30 06:55:45;;;;;;;12.75;3.30;;;;;;;12.55;100.00;102384.91;6162460;23;20005;-81
2023/05/30 06:58:13;;;;;;;13.25;3.97;;;;;;;12.69;100.00;102401.44;6162329;23;20012;-80
2023/05/30 07:00:38;;;;;;;22.88;3.80;;;;;;;13.57;100.00;102379.22;6190250;23;20012;-80
2023/05/30 07:03:04;;;;;;;14.95;3.38;;;;;;;13.95;100.00;102396.88;6147702;23;20310;-81
2023/05/30 07:05:29;;;;;;;10.60;3.55;;;;;;;14.92;100.00;102394.69;6145205;23;20076;-83
2023/05/30 07:07:55;;;;;;;5.28;2.65;;;;;;;14.60;100.00;102397.91;6173185;23;20083;-81
2023/05/30 07:10:20;;;;;;;14.20;3.30;;;;;;;14.79;100.00;102398.38;6173195;23;20013;-81
2023/05/30 07:12:46;;;;;;;9.82;2.85;;;;;;;15.24;97.44;102404.25;6165714;23;20043;-82
2023/05/30 07:15:12;;;;;;;11.02;3.53;;;;;;;16.29;91.53;102398.19;6123196;23;20009;-81
2023/05/30 07:17:38;;;;;;;9.27;3.45;;;;;;;16.14;91.80;102412.19;6151033;23;20019;-81
2023/05/30 07:20:05;;;;;;;13.95;3.22;;;;;;;15.70;89.56;102412.84;6164933;23;20017;-82
2023/05/30 07:22:31;;;;;;;15.48;3.13;;;;;;;15.57;90.53;102413.75;6191915;23;20013;-85
2023/05/30 07:24:56;;;;;;;9.68;3.25;;;;;;;15.93;89.72;102411.97;6189270;23;20017;-89
2023/05/30 07:27:22;;;;;;;14.70;2.75;;;;;;;16.19;85.37;102420.13;6138989;23;20433;-87
2023/05/30 07:29:47;;;;;;;15.85;4.15;;;;;;;15.88;87.56;102405.06;6136769;23;20150;-88
2023/05/30 07:32:13;;;;;;;10.98;3.08;;;;;;;14.85;88.71;102392.38;6114700;23;20012;-87
2023/05/30 07:34:39;;;;;;;9.95;3.10;;;;;;;14.71;90.97;102395.28;6137191;23;20437;-89
2023/05/30 07:37:05;;;;;;;13.40;3.22;;;;;;;14.09;96.88;102412.47;6106477;23;20010;-86
2023/05/30 07:39:30;;;;;;;11.52;3.63;;;;;;;13.78;98.72;102401.66;6130693;23;20040;-83
2023/05/30 07:41:56;;;;;;;10.07;3.10;;;;;;;15.55;90.34;102407.47;6156732;23;20020;-88
2023/05/30 07:44:21;;;;;;;13.13;3.55;;;;;;;16.25;86.44;102411.38;6108594;23;20010;-86
2023/05/30 07:46:47;;;;;;;15.50;3.45;;;;;;;16.73;78.75;102410.34;6084672;23;20032;-83
2023/05/30 07:49:13;;;;;;;7.00;2.40;;;;;;;16.84;79.97;102428.84;6162893;23;20014;-86
2023/05/30 07:51:39;;;;;;;11.15;2.88;;;;;;;16.42;80.01;102428.50;6172128;23;20086;-84
2023/05/30 07:54:05;;;;;;;6.22;2.83;;;;;;;16.63;81.31;102409.34;6122778;23;20072;-85
2023/05/30 07:56:31;;;;;;;8.32;3.33;;;;;;;17.22;77.30;102405.50;6176525;23;20008;-85
2023/05/30 07:58:56;;;;;;;8.70;2.90;;;;;;;17.16;78.05;102417.06;6151909;23;20013;-84
2023/05/30 08:01:22;;;;;;;16.17;2.60;;;;;;;16.82;79.09;102405.94;6152441;23;20012;-84
2023/05/30 08:03:47;;;;;;;11.48;3.22;;;;;;;16.43;77.38;102428.41;6124828;23;20061;-85
2023/05/30 08:06:12;;;;;;;11.43;2.92;;;;;;;15.97;80.63;102409.84;6175485;23;20009;-84
2023/05/30 08:08:38;;;;;;;10.60;3.35;;;;;;;16.75;77.87;102424.94;6123817;23;20014;-85
2023/05/30 08:11:03;;;;;;;11.07;3.50;;;;;;;16.27;77.57;102402.97;6168773;23;20019;-87
2023/05/30 08:13:29;;;;;;;13.18;3.17;;;;;;;15.60;82.45;102404.38;6146667;23;20111;-86
2023/05/30 08:15:55;;;;;;;9.00;3.22;;;;;;;15.60;82.67;102408.00;6121794;23;20036;-86
2023/05/30 08:18:21;;;;;;;12.90;3.53;;;;;;;15.91;78.67;102400.19;6142220;23;20434;-85
2023/05/30 08:20:47;;;;;;;8.55;2.80;;;;;;;16.15;79.75;102421.34;6114920;23;20041;-84
2023/05/30 08:23:13;;;;;;;10.52;2.88;;;;;;;16.48;78.19;102408.69;6140578;23;20020;-85
2023/05/30 08:25:42;;;;;;;8.40;2.83;;;;;;;17.12;75.62;102390.66;6165700;23;20017;-86
2023/05/30 08:28:12;;;;;;;12.07;3.40;;;;;;;17.16;75.05;102389.41;6165271;23;20013;-86
2023/05/30 08:30:40;;;;;;;6.90;3.05;;;;;;;17.94;72.46;102407.78;6165441;23;20017;-86
2023/05/30 08:33:09;;;;;;;12.48;3.63;;;;;;;17.93;70.38;102410.66;6161380;23;20020;-85
2023/05/30 08:35:34;;;;;;;9.57;3.25;;;;;;;18.21;69.80;102402.75;6160647;23;20020;-84
2023/05/30 08:38:00;;;;;;;10.07;3.30;;;;;;;18.09;69.19;102379.75;6111545;23;20017;-84
2023/05/30 08:40:26;;;;;;;14.70;3.60;;;;;;;18.42;67.46;102398.09;6135040;23;20021;-82
2023/05/30 08:42:52;;;;;;;9.65;3.00;;;;;;;17.85;71.84;102393.78;6160453;23;20013;-82
2023/05/30 08:45:19;;;;;;;11.88;3.58;;;;;;;18.13;69.58;102401.50;6136353;23;20121;-83
2023/05/30 08:47:46;;;;;;;9.43;3.05;;;;;;;18.28;68.75;102390.09;6164745;23;20012;-83
2023/05/30 08:50:13;;;;;;;10.63;3.78;;;;;;;18.34;67.90;102392.34;6162689;23;20020;-83
2023/05/30 08:52:41;;;;;;;12.25;3.75;;;;;;;18.33;67.71;102390.56;6107437;23;20020;-84
2023/05/30 08:55:11;;;;;;;8.60;3.20;;;;;;;18.34;67.97;102384.88;6156178;23;20112;-84
2023/05/30 08:57:59;;;;;;;9.95;4.00;;;;;;;18.69;66.45;102385.53;6156614;23;20041;-84
2023/05/30 09:00:26;;;;;;;9.23;3.45;;;;;;;18.19;67.86;102391.78;6156856;23;20084;-84
2023/05/30 09:02:55;;;;;;;14.45;3.47;;;;;;;18.77;67.11;102391.28;6131227;23;20094;-84
2023/05/30 09:05:21;;;;;;;8.90;3.75;;;;;;;18.26;67.67;102379.13;6157137;23;20037;-84
2023/05/30 09:07:47;;;;;;;7.82;3.92;;;;;;;17.75;69.41;102372.41;6157500;23;20013;-84
2023/05/30 09:10:15;;;;;;;11.48;3.58;;;;;;;18.67;67.16;102370.94;6133039;23;20040;-85
2023/05/30 09:12:44;;;;;;;20.20;4.50;;;;;;;18.67;65.46;102379.25;6133775;23;20406;-84
2023/05/30 09:15:10;;;;;;;8.38;3.72;;;;;;;18.89;66.28;102384.69;6157189;23;20064;-84
2023/05/30 09:17:36;;;;;;;7.00;3.63;;;;;;;18.47;66.16;102373.59;6157741;23;19993;-83
2023/05/30 09:20:07;;;;;;;10.90;4.40;;;;;;;19.15;65.37;102381.44;6132423;23;20070;-84
2023/05/30 09:22:33;;;;;;;11.27;4.35;;;;;;;19.13;64.14;102375.13;6156699;23;20009;-84
2023/05/30 09:25:03;;;;;;;11.45;3.45;;;;;;;19.34;62.78;102377.81;6157004;23;20009;-85
2023/05/30 09:27:33;;;;;;;12.02;4.18;;;;;;;19.35;61.95;102373.13;6181223;23;20001;-84
2023/05/30 09:30:09;;;;;;;8.57;3.40;;;;;;;19.18;62.61;102358.91;6156350;23;20067;-84
2023/05/30 09:32:36;;;;;;;8.82;3.97;;;;;;;19.51;61.49;102373.47;6156568;23;20033;-83
2023/05/30 09:35:10;;;;;;;8.93;3.90;;;;;;;19.54;62.64;102367.63;6156095;23;20019;-83
2023/05/30 09:37:41;;;;;;;8.13;4.30;;;;;;;19.47;62.39;102367.31;6154204;23;20009;-83
2023/05/30 09:40:11;;;;;;;10.63;4.82;;;;;;;19.13;63.17;102364.00;6131225;23;20044;-83
2023/05/30 09:42:48;;;;;;;14.27;4.18;;;;;;;19.46;63.30;102359.13;6154964;23;20021;-85
2023/05/30 09:45:15;;;;;;;12.75;4.13;;;;;;;18.90;63.31;102349.47;6156356;23;20041;-85
2023/05/30 09:47:46;;;;;;;10.25;3.63;;;;;;;19.06;62.51;102362.84;6130420;23;20006;-84
2023/05/30 09:50:14;;;;;;;14.38;4.65;;;;;;;19.10;63.06;102364.28;6156983;23;20135;-87
2023/05/30 09:52:45;;;;;;;12.27;4.53;;;;;;;19.33;62.80;102364.94;6156934;23;20018;-87
2023/05/30 09:55:15;;;;;;;15.23;4.63;;;;;;;19.45;60.07;102361.03;6157946;23;20061;-91
2023/05/30 09:57:48;;;;;;;16.10;5.15;;;;;;;20.01;58.01;102353.09;6163046;23;20063;-89
2023/05/30 10:00:22;;;;;;;11.05;4.45;;;;;;;20.27;56.61;102367.25;6168759;23;20061;-89
2023/05/30 10:02:56;;;;;;;15.80;4.35;;;;;;;19.84;59.66;102354.72;6171988;23;20006;-88
2023/05/30 10:05:22;;;;;;;10.13;3.67;;;;;;;19.74;60.84;102351.88;6119253;23;20005;-88
2023/05/30 10:07:50;;;;;;;12.35;4.03;;;;;;;19.31;59.49;102339.22;6140263;23;20009;-91
2023/05/30 10:10:16;;;;;;;13.00;4.82;;;;;;;19.15;58.95;102350.00;6136870;23;20072;-88
2023/05/30 10:12:50;;;;;;;7.18;4.30;;;;;;;19.74;58.40;102320.41;6158560;23;20111;-89
2023/05/30 10:15:18;;;;;;;12.90;4.30;;;;;;;19.92;58.90;102321.50;6140578;23;20010;-91
2023/05/30 10:17:50;;;;;;;9.98;4.10;;;;;;;20.00;56.80;102317.94;6092225;23;20009;-89
2023/05/30 10:20:17;;;;;;;11.25;4.93;;;;;;;20.24;56.91;102341.66;6107602;23;20009;-86
2023/05/30 10:22:44;;;;;;;14.77;4.85;;;;;;;19.85;56.64;102314.75;6170348;23;20021;-88
2023/05/30 10:25:12;;;;;;;8.73;4.15;;;;;;;20.63;57.02;102339.69;6147909;23;20025;-86
2023/05/30 10:28:00;;;;;;;14.02;5.10;;;;;;;20.20;56.51;102333.59;6124727;23;20002;-91
2023/05/30 10:30:27;;;;;;;9.65;4.07;;;;;;;20.70;55.95;102351.97;6123615;23;20009;-85
2023/05/30 10:35:29;;;;;;;9.52;4.75;;;;;;;19.85;58.66;102338.91;6105137;23;20025;-85
2023/05/30 10:37:56;;;;;;;13.40;4.85;;;;;;;20.16;59.21;102325.69;6190083;23;20448;-86
2023/05/30 10:40:41;;;;;;;15.43;5.20;;;;;;;20.23;58.51;102337.09;6165841;23;20009;-83
2023/05/30 10:43:34;;;;;;;16.40;5.75;;;;;;;20.15;57.64;102337.84;6145317;23;20020;-86
2023/05/30 10:46:12;;;;;;;10.32;5.40;;;;;;;20.36;57.57;102341.31;6172749;23;20341;-86
2023/05/30 10:48:50;;;;;;;12.15;5.47;;;;;;;20.30;57.15;102336.38;6184927;23;20047;-87
2023/05/30 10:51:16;;;;;;;10.50;4.90;;;;;;;20.30;58.48;102328.03;6163392;23;20021;-88
2023/05/30 10:53:44;;;;;;;11.13;5.47;;;;;;;20.90;54.45;102311.00;6126843;23;20025;-87
2023/05/30 10:56:31;;;;;;;12.98;5.93;;;;;;;20.75;56.92;102316.19;6186522;23;20080;-88
2023/05/30 10:58:57;;;;;;;17.58;5.28;;;;;;;20.86;56.17;102329.06;6186001;23;20013;-86
2023/05/30 11:01:33;;;;;;;12.93;5.70;;;;;;;20.57;57.04;102326.34;6185980;23;19989;-89
2023/05/30 11:04:06;;;;;;;13.23;4.88;;;;;;;20.72;55.94;102308.13;6153445;23;20028;-86
2023/05/30 11:06:34;;;;;;;12.45;5.65;;;;;;;20.79;56.48;102311.22;6127928;23;20025;-87
2023/05/30 11:09:08;;;;;;;11.98;5.35;;;;;;;20.91;57.70;102318.31;6152692;23;20016;-87
2023/05/30 11:11:40;;;;;;;11.30;5.30;;;;;;;20.79;54.85;102318.66;6151008;23;19989;-86
2023/05/30 11:14:06;;;;;;;9.70;5.55;;;;;;;20.24;57.13;102309.16;6152359;23;20022;-87
2023/05/30 11:16:32;;;;;;;10.10;5.43;;;;;;;20.65;56.81;102304.22;6127562;23;20010;-88
2023/05/30 11:19:11;;;;;;;9.98;4.65;;;;;;;20.52;57.01;102307.31;6104359;23;20069;-87
2023/05/30 11:21:57;;;;;;;11.60;5.03;;;;;;;20.93;56.31;102309.81;6126830;23;20001;-87